Time;durP1;ratioP1;P1;durP2;ratioP2;P2;SDS_P1;SDS_P2;PMS_P1;PMS_P2;Temp;Humidity;BMP_temperature;BMP_pressure;BME280_temperature;BME280_humidity;BME280_pressure;Samples;Min_cycle;Max_cycle;Signal;HPM_P1;HPM_P2
2024/01/30 00:01:16;;;;;;;15.18;11.35;;;6.20;99.90;;;;;;5127188;27;20320;-77
2024/01/30 00:03:41;;;;;;;15.70;10.98;;;6.20;99.90;;;;;;5126970;28;20115;-76
2024/01/30 00:06:08;;;;;;;13.70;10.48;;;6.20;99.90;;;;;;5126670;28;20111;-77
2024/01/30 00:08:33;;;;;;;;;;;6.20;99.90;;;;;;5129363;27;20060;-77
2024/01/30 00:10:59;;;;;;;13.23;10.65;;;6.20;99.90;;;;;;5127219;27;19931;-77
2024/01/30 00:13:25;;;;;;;12.88;9.77;;;6.20;99.90;;;;;;5127348;28;20130;-77
2024/01/30 00:15:50;;;;;;;15.43;11.17;;;6.20;99.90;;;;;;5125719;28;20375;-78
2024/01/30 00:18:16;;;;;;;13.43;10.23;;;6.20;99.90;;;;;;5129033;27;20076;-77
2024/01/30 00:20:42;;;;;;;12.70;9.60;;;6.20;99.90;;;;;;5127458;27;20455;-78
2024/01/30 00:23:08;;;;;;;;;;;6.20;99.90;;;;;;5127045;28;20852;-77
2024/01/30 00:25:33;;;;;;;14.13;10.95;;;6.20;99.90;;;;;;5127548;27;20059;-77
2024/01/30 00:27:59;;;;;;;14.70;10.63;;;6.20;99.90;;;;;;5130927;27;20118;-77
2024/01/30 00:30:25;;;;;;;16.25;11.57;;;6.20;99.90;;;;;;5129369;27;20043;-77
2024/01/30 00:32:50;;;;;;;15.30;11.20;;;6.20;99.90;;;;;;5132289;27;20066;-77
2024/01/30 00:35:16;;;;;;;14.68;11.02;;;6.20;99.90;;;;;;5132328;27;20039;-76
2024/01/30 00:37:41;;;;;;;13.23;10.20;;;6.20;99.90;;;;;;5132391;27;20116;-76
2024/01/30 00:40:10;;;;;;;16.42;11.75;;;6.20;99.90;;;;;;5132380;27;20024;-76
2024/01/30 00:42:35;;;;;;;15.43;11.15;;;6.20;99.90;;;;;;5132496;27;20138;-78
2024/01/30 00:45:01;;;;;;;14.63;10.82;;;6.20;99.90;;;;;;5165252;27;20126;-78
2024/01/30 00:47:27;;;;;;;10.68;9.00;;;6.20;99.90;;;;;;5157836;27;20043;-77
2024/01/30 00:49:52;;;;;;;17.55;11.75;;;6.20;99.90;;;;;;5130306;27;20043;-77
2024/01/30 00:52:18;;;;;;;14.07;11.27;;;6.20;99.90;;;;;;5131876;27;20039;-77
2024/01/30 00:54:43;;;;;;;16.20;11.63;;;6.20;99.90;;;;;;5130994;27;20043;-78
2024/01/30 00:57:09;;;;;;;13.45;10.95;;;6.20;99.90;;;;;;5130644;27;20057;-78
2024/01/30 00:59:35;;;;;;;17.40;11.85;;;6.20;99.90;;;;;;5130858;27;20091;-77
2024/01/30 01:02:01;;;;;;;14.35;11.45;;;6.20;99.90;;;;;;5129686;27;20069;-78
2024/01/30 01:04:27;;;;;;;15.93;11.55;;;6.30;99.90;;;;;;5165290;27;20491;-78
2024/01/30 01:06:52;;;;;;;17.77;13.13;;;6.20;99.90;;;;;;5130185;27;20050;-77
2024/01/30 01:09:18;;;;;;;16.92;12.52;;;6.30;99.90;;;;;;5152338;27;20043;-77
2024/01/30 01:11:43;;;;;;;15.68;12.35;;;6.30;99.90;;;;;;5129504;27;20074;-77
2024/01/30 01:14:09;;;;;;;17.58;13.48;;;6.30;99.90;;;;;;5130735;27;20067;-77
2024/01/30 01:16:35;;;;;;;17.30;13.40;;;6.30;99.90;;;;;;5131826;27;20039;-77
2024/01/30 01:19:00;;;;;;;16.08;12.57;;;6.30;99.90;;;;;;5130159;27;20127;-77
2024/01/30 01:21:26;;;;;;;15.18;11.90;;;6.30;99.90;;;;;;5130299;27;20039;-76
2024/01/30 01:23:52;;;;;;;14.95;11.98;;;6.40;99.90;;;;;;5131569;27;20506;-77
2024/01/30 01:26:18;;;;;;;15.80;11.65;;;6.40;99.90;;;;;;5131022;27;20042;-76
2024/01/30 01:28:43;;;;;;;16.75;12.00;;;6.30;99.90;;;;;;5131779;27;20043;-78
2024/01/30 01:31:09;;;;;;;16.10;11.68;;;6.30;99.90;;;;;;5164758;27;20035;-77
2024/01/30 01:33:36;;;;;;;15.93;12.35;;;6.30;99.90;;;;;;5129072;27;20054;-78
2024/01/30 01:36:02;;;;;;;18.27;12.45;;;6.30;99.90;;;;;;5130329;27;20103;-77
2024/01/30 01:38:28;;;;;;;17.02;12.77;;;6.30;99.90;;;;;;5129255;27;20574;-77
2024/01/30 01:40:54;;;;;;;17.00;12.68;;;6.20;99.90;;;;;;5112516;27;20187;-77
2024/01/30 01:43:19;;;;;;;20.20;13.65;;;6.20;99.90;;;;;;5131335;27;20126;-77
2024/01/30 01:45:45;;;;;;;15.40;12.53;;;6.20;99.90;;;;;;5131357;27;20080;-77
2024/01/30 01:48:12;;;;;;;17.33;12.45;;;6.10;99.90;;;;;;5130635;27;20734;-76
2024/01/30 01:50:38;;;;;;;;;;;6.10;99.90;;;;;;5130298;27;20071;-77
2024/01/30 01:53:04;;;;;;;15.88;12.30;;;6.10;99.90;;;;;;5130470;27;21200;-76
2024/01/30 01:55:32;;;;;;;18.25;13.38;;;6.10;99.90;;;;;;5128930;27;20047;-78
2024/01/30 01:57:58;;;;;;;22.05;13.73;;;6.10;99.90;;;;;;5112652;27;20051;-78
2024/01/30 02:00:24;;;;;;;17.02;13.13;;;6.10;99.90;;;;;;5126898;27;20340;-77
2024/01/30 02:02:50;;;;;;;16.00;12.43;;;6.10;99.90;;;;;;5110427;28;20143;-77
2024/01/30 02:05:16;;;;;;;16.38;12.27;;;6.10;99.90;;;;;;5143366;27;20085;-77
2024/01/30 02:07:43;;;;;;;17.77;12.93;;;6.10;99.90;;;;;;5109024;28;20043;-77
2024/01/30 02:10:12;;;;;;;14.77;11.75;;;6.10;99.90;;;;;;5114896;27;20046;-76
2024/01/30 02:12:38;;;;;;;16.67;12.18;;;6.10;99.90;;;;;;5112091;27;20070;-77
2024/01/30 02:15:04;;;;;;;14.70;10.90;;;6.10;99.90;;;;;;5129124;27;20111;-76
2024/01/30 02:17:31;;;;;;;20.13;14.23;;;6.10;99.90;;;;;;5127963;27;20123;-76
2024/01/30 02:19:56;;;;;;;;;;;6.20;99.90;;;;;;5128968;27;20820;-77
2024/01/30 02:22:23;;;;;;;15.43;11.52;;;6.20;99.90;;;;;;5128681;27;19979;-77
2024/01/30 02:24:49;;;;;;;15.85;11.75;;;6.20;99.90;;;;;;5128541;27;20067;-77
2024/01/30 02:27:15;;;;;;;16.58;12.50;;;6.20;99.90;;;;;;5128374;27;20047;-77
2024/01/30 02:29:40;;;;;;;17.73;12.35;;;6.20;99.90;;;;;;5127959;27;20043;-78
2024/01/30 02:32:07;;;;;;;20.08;14.32;;;6.20;99.90;;;;;;5163799;27;20039;-77
2024/01/30 02:34:33;;;;;;;17.25;12.32;;;6.20;99.90;;;;;;5127323;27;20486;-77
2024/01/30 02:36:59;;;;;;;15.55;12.32;;;6.30;99.90;;;;;;5128599;27;20035;-77
2024/01/30 02:39:24;;;;;;;18.58;12.63;;;6.20;99.90;;;;;;5162679;27;20051;-78
2024/01/30 02:41:50;;;;;;;16.90;12.07;;;6.30;99.90;;;;;;5129776;27;20035;-78
2024/01/30 02:44:15;;;;;;;18.55;13.18;;;6.30;99.90;;;;;;5160686;27;20297;-79
2024/01/30 02:46:41;;;;;;;17.30;12.30;;;6.30;99.90;;;;;;5152563;27;20122;-77
2024/01/30 02:49:06;;;;;;;17.05;12.77;;;6.30;99.90;;;;;;5141286;27;20281;-77
2024/01/30 02:51:32;;;;;;;15.50;12.05;;;6.30;99.90;;;;;;5120042;27;20041;-76
2024/01/30 02:53:58;;;;;;;17.13;12.55;;;6.30;99.90;;;;;;5127740;27;20047;-77
2024/01/30 02:56:23;;;;;;;17.20;12.52;;;6.20;99.90;;;;;;5146028;27;20085;-78
2024/01/30 02:58:49;;;;;;;17.88;12.80;;;6.20;99.90;;;;;;5122007;27;20039;-77
2024/01/30 03:01:14;;;;;;;16.83;12.10;;;6.20;99.90;;;;;;5152686;27;20091;-76
2024/01/30 03:03:40;;;;;;;16.77;12.77;;;6.20;99.90;;;;;;5129664;27;20305;-77
2024/01/30 03:06:06;;;;;;;17.83;12.95;;;6.20;99.90;;;;;;5126061;27;20301;-77
2024/01/30 03:08:32;;;;;;;17.48;13.10;;;6.10;99.90;;;;;;5127917;27;20487;-76
2024/01/30 03:10:58;;;;;;;16.40;12.02;;;6.10;99.90;;;;;;5157955;27;20096;-76
2024/01/30 03:13:24;;;;;;;19.33;13.20;;;6.10;99.90;;;;;;5142170;27;20555;-77
2024/01/30 03:15:50;;;;;;;16.92;12.60;;;6.20;99.90;;;;;;5111355;28;20051;-77
2024/01/30 03:18:16;;;;;;;17.45;12.05;;;6.20;99.90;;;;;;5128401;27;20046;-77
2024/01/30 03:20:41;;;;;;;18.25;12.55;;;6.20;99.90;;;;;;5129275;27;20043;-77
2024/01/30 03:23:07;;;;;;;15.18;11.73;;;6.20;99.90;;;;;;5127160;27;20047;-77
2024/01/30 03:25:33;;;;;;;17.13;12.65;;;6.20;99.90;;;;;;5110465;27;20043;-76
2024/01/30 03:27:58;;;;;;;16.42;11.93;;;6.20;99.90;;;;;;5128470;27;20061;-76
2024/01/30 03:30:24;;;;;;;16.30;12.13;;;6.20;99.90;;;;;;5128092;28;20604;-77
2024/01/30 03:32:50;;;;;;;19.23;13.87;;;6.20;99.90;;;;;;5127967;27;20074;-77
2024/01/30 03:35:15;;;;;;;15.05;11.68;;;6.20;99.90;;;;;;5127987;28;20285;-78
2024/01/30 03:37:41;;;;;;;15.85;12.27;;;6.20;99.90;;;;;;5143940;27;20043;-77
2024/01/30 03:40:07;;;;;;;16.73;12.15;;;6.20;99.90;;;;;;5162847;27;20035;-78
2024/01/30 03:42:33;;;;;;;19.67;13.60;;;6.10;99.90;;;;;;5128979;27;20035;-78
2024/01/30 03:44:58;;;;;;;18.90;13.65;;;6.20;99.90;;;;;;5110320;28;20098;-77
2024/01/30 03:47:24;;;;;;;17.45;12.50;;;6.20;99.90;;;;;;5128735;28;20176;-76
2024/01/30 03:49:49;;;;;;;17.70;12.60;;;6.20;99.90;;;;;;5129113;28;20036;-78
2024/01/30 03:52:15;;;;;;;14.93;11.10;;;6.30;99.90;;;;;;5128697;28;20101;-77
2024/01/30 03:54:40;;;;;;;14.52;11.23;;;6.20;99.90;;;;;;5162725;27;20289;-77
2024/01/30 03:57:06;;;;;;;16.13;13.18;;;6.20;99.90;;;;;;5148980;27;20039;-77
2024/01/30 03:59:32;;;;;;;14.70;11.27;;;6.30;99.90;;;;;;5125093;27;20046;-78
2024/01/30 04:01:57;;;;;;;14.50;11.40;;;6.30;99.90;;;;;;5131948;27;20047;-78
2024/01/30 04:04:23;;;;;;;15.60;11.50;;;6.30;99.90;;;;;;5131445;27;20047;-77
2024/01/30 04:06:49;;;;;;;15.85;11.98;;;6.40;99.90;;;;;;5130551;27;20390;-77
2024/01/30 04:09:14;;;;;;;16.20;12.10;;;6.40;99.90;;;;;;5123624;27;20130;-77
2024/01/30 04:11:40;;;;;;;16.60;12.23;;;6.40;99.90;;;;;;5131092;27;20191;-77
2024/01/30 04:14:06;;;;;;;17.38;12.60;;;6.40;99.90;;;;;;5130341;27;20051;-77
2024/01/30 04:16:32;;;;;;;18.20;12.70;;;6.50;99.90;;;;;;5131391;27;20043;-77
2024/01/30 04:18:58;;;;;;;15.68;12.02;;;6.60;99.90;;;;;;5131647;27;20338;-77
2024/01/30 04:21:23;;;;;;;13.85;10.52;;;6.60;99.90;;;;;;5131880;27;20070;-78
2024/01/30 04:23:50;;;;;;;13.13;10.57;;;6.60;99.90;;;;;;5113913;27;20089;-78
2024/01/30 04:26:16;;;;;;;15.13;10.43;;;6.60;99.90;;;;;;5131380;27;20058;-79
2024/01/30 04:28:42;;;;;;;15.13;11.00;;;6.70;99.90;;;;;;5131831;27;20035;-79
2024/01/30 04:31:08;;;;;;;14.88;10.98;;;6.70;99.90;;;;;;5129841;27;20289;-77
2024/01/30 04:33:34;;;;;;;14.55;11.20;;;6.60;99.90;;;;;;5131145;27;20501;-77
2024/01/30 04:35:59;;;;;;;14.70;10.38;;;6.60;99.90;;;;;;5132253;27;20610;-77
2024/01/30 04:38:25;;;;;;;15.15;11.95;;;6.60;99.90;;;;;;5131506;27;20053;-76
2024/01/30 04:40:50;;;;;;;18.53;11.07;;;6.70;99.90;;;;;;5130406;27;20049;-77
2024/01/30 04:43:16;;;;;;;15.70;11.07;;;6.70;99.90;;;;;;5155959;27;20297;-77
2024/01/30 04:45:42;;;;;;;18.10;11.20;;;6.70;99.90;;;;;;5116317;27;20043;-77
2024/01/30 04:48:07;;;;;;;15.38;11.63;;;6.70;99.90;;;;;;5165309;27;20126;-76
2024/01/30 04:50:33;;;;;;;17.52;13.10;;;6.80;99.90;;;;;;5130568;27;20547;-77
2024/01/30 04:52:58;;;;;;;16.83;10.98;;;6.80;99.90;;;;;;5132351;27;20045;-76
2024/01/30 04:55:24;;;;;;;13.10;10.35;;;6.80;99.90;;;;;;5130924;27;20038;-77
2024/01/30 04:57:50;;;;;;;13.98;10.43;;;6.80;99.90;;;;;;5132208;27;20410;-77
2024/01/30 05:00:16;;;;;;;17.67;12.48;;;6.90;99.90;;;;;;5130650;27;20437;-77
2024/01/30 05:02:41;;;;;;;14.45;10.80;;;6.90;99.90;;;;;;5128187;27;20047;-77
2024/01/30 05:05:07;;;;;;;17.73;11.55;;;6.90;99.90;;;;;;5130230;27;20031;-77
2024/01/30 05:07:34;;;;;;;17.55;11.32;;;7.00;99.90;;;;;;5150203;27;20541;-77
2024/01/30 05:09:59;;;;;;;13.60;10.20;;;7.00;99.90;;;;;;5151119;27;20549;-78
2024/01/30 05:12:25;;;;;;;15.98;10.65;;;7.00;99.90;;;;;;5115379;27;20047;-77
2024/01/30 05:14:51;;;;;;;13.00;9.73;;;7.00;99.90;;;;;;5130405;27;20047;-77
2024/01/30 05:17:16;;;;;;;12.90;10.23;;;7.00;99.90;;;;;;5130489;27;20107;-77
2024/01/30 05:19:43;;;;;;;15.27;10.17;;;7.00;99.90;;;;;;5128764;27;20046;-77
2024/01/30 05:22:09;;;;;;;12.35;10.63;;;7.10;99.90;;;;;;5129907;27;20292;-76
2024/01/30 05:24:36;;;;;;;14.60;10.60;;;7.10;99.90;;;;;;5113129;27;20103;-77
2024/01/30 05:27:02;;;;;;;14.55;10.20;;;7.10;99.90;;;;;;5129854;27;20039;-77
2024/01/30 05:29:28;;;;;;;14.02;10.70;;;7.10;99.90;;;;;;5130382;27;20035;-77
2024/01/30 05:31:53;;;;;;;12.43;9.50;;;7.10;99.90;;;;;;5112884;27;20470;-77
2024/01/30 05:34:19;;;;;;;15.93;10.80;;;7.10;99.90;;;;;;5128703;27;20077;-77
2024/01/30 05:36:44;;;;;;;15.65;11.13;;;7.10;99.90;;;;;;5111012;27;20300;-77
2024/01/30 05:39:10;;;;;;;13.75;10.75;;;7.10;99.90;;;;;;5164605;27;20100;-77
2024/01/30 05:41:36;;;;;;;13.27;10.20;;;7.10;99.90;;;;;;5129472;27;20448;-77
2024/01/30 05:44:02;;;;;;;13.27;9.82;;;7.10;99.90;;;;;;5148539;27;20399;-77
2024/01/30 05:46:27;;;;;;;13.52;10.10;;;7.10;99.90;;;;;;5121784;27;20118;-76
2024/01/30 05:48:53;;;;;;;14.05;10.68;;;7.10;99.90;;;;;;5129288;27;20114;-77
2024/01/30 05:51:19;;;;;;;18.85;10.80;;;7.10;99.90;;;;;;5126059;27;20039;-76
2024/01/30 05:53:44;;;;;;;17.42;11.75;;;7.10;99.90;;;;;;5164335;27;20109;-77
2024/01/30 05:56:10;;;;;;;13.80;11.23;;;7.10;99.90;;;;;;5130387;27;20047;-77
2024/01/30 05:58:37;;;;;;;14.60;11.07;;;7.00;99.90;;;;;;5129811;27;20043;-77
2024/01/30 06:01:06;;;;;;;15.13;11.20;;;7.00;99.90;;;;;;5112390;27;20082;-77
2024/01/30 06:03:32;;;;;;;14.80;11.38;;;7.00;99.90;;;;;;5129140;27;20051;-76
2024/01/30 06:05:58;;;;;;;15.97;10.30;;;7.10;99.90;;;;;;5164383;27;20368;-76
2024/01/30 06:08:23;;;;;;;13.98;11.00;;;7.00;99.90;;;;;;5129715;27;20353;-76
2024/01/30 06:10:49;;;;;;;16.70;10.07;;;7.00;99.90;;;;;;5111519;27;20656;-76
2024/01/30 06:13:14;;;;;;;13.55;10.73;;;7.00;99.90;;;;;;5126507;27;20313;-76
2024/01/30 06:15:40;;;;;;;14.77;10.65;;;7.00;99.90;;;;;;5129670;27;20054;-76
2024/01/30 06:18:06;;;;;;;14.10;10.15;;;7.10;99.90;;;;;;5128745;27;20081;-77
2024/01/30 06:20:31;;;;;;;15.32;11.15;;;7.10;99.90;;;;;;5129196;27;20043;-77
2024/01/30 06:22:57;;;;;;;16.63;11.33;;;7.10;99.90;;;;;;5128806;27;20051;-77
2024/01/30 06:25:22;;;;;;;15.95;10.90;;;7.10;99.90;;;;;;5127988;27;20847;-76
2024/01/30 06:27:48;;;;;;;15.45;10.95;;;7.10;99.90;;;;;;5128532;27;20034;-77
2024/01/30 06:30:14;;;;;;;14.30;10.15;;;7.10;99.90;;;;;;5152011;27;20039;-77
2024/01/30 06:32:40;;;;;;;13.90;10.82;;;7.20;99.90;;;;;;5108028;27;20352;-77
2024/01/30 06:35:06;;;;;;;13.77;10.18;;;7.20;99.90;;;;;;5128824;27;20051;-77
2024/01/30 06:37:31;;;;;;;13.40;9.98;;;7.20;99.90;;;;;;5128812;27;20032;-77
2024/01/30 06:39:57;;;;;;;14.05;9.65;;;7.20;99.90;;;;;;5143487;27;20043;-77
2024/01/30 06:42:22;;;;;;;15.57;11.02;;;7.20;99.90;;;;;;5109823;27;20032;-77
2024/01/30 06:44:48;;;;;;;13.00;9.88;;;7.20;99.90;;;;;;5154327;27;20039;-77
2024/01/30 06:47:14;;;;;;;13.35;9.65;;;7.20;99.90;;;;;;5145586;27;20028;-77
2024/01/30 06:49:41;;;;;;;14.73;10.30;;;7.20;99.90;;;;;;5111609;27;20058;-77
2024/01/30 06:52:08;;;;;;;16.17;11.10;;;7.20;99.90;;;;;;5128567;27;20039;-78
2024/01/30 06:54:33;;;;;;;13.57;10.07;;;7.30;99.90;;;;;;5129249;27;20031;-78
2024/01/30 06:57:00;;;;;;;18.20;10.45;;;7.20;99.90;;;;;;5128161;27;20038;-78
2024/01/30 06:59:25;;;;;;;14.52;10.82;;;7.20;99.90;;;;;;5127935;27;20034;-78
2024/01/30 07:01:51;;;;;;;13.88;9.90;;;7.30;99.90;;;;;;5119801;27;20034;-77
2024/01/30 07:04:18;;;;;;;10.90;8.75;;;7.30;99.90;;;;;;5126563;27;20126;-77
2024/01/30 07:06:44;;;;;;;13.65;9.60;;;7.30;99.90;;;;;;5109469;27;20035;-78
2024/01/30 07:09:09;;;;;;;12.05;9.55;;;7.30;99.90;;;;;;5128167;27;20489;-77
2024/01/30 07:11:35;;;;;;;14.77;10.13;;;7.30;99.90;;;;;;5108659;27;20042;-77
2024/01/30 07:14:03;;;;;;;13.23;10.30;;;7.30;99.90;;;;;;5107859;27;20047;-77
2024/01/30 07:16:29;;;;;;;13.57;9.32;;;7.30;99.90;;;;;;5105504;27;20035;-76
2024/01/30 07:18:55;;;;;;;11.25;9.15;;;7.30;99.90;;;;;;5127908;27;20047;-76
2024/01/30 07:21:25;;;;;;;12.05;10.00;;;7.30;99.90;;;;;;5110790;28;20118;-76
2024/01/30 07:23:50;;;;;;;12.43;9.65;;;7.30;99.90;;;;;;5109108;27;20062;-77
2024/01/30 07:26:16;;;;;;;11.20;8.85;;;7.40;99.90;;;;;;5116235;27;20039;-77
2024/01/30 07:28:41;;;;;;;15.43;10.60;;;7.40;99.90;;;;;;5142457;27;20039;-77
2024/01/30 07:31:07;;;;;;;12.90;9.30;;;7.40;99.90;;;;;;5129267;27;20418;-77
2024/01/30 07:33:33;;;;;;;14.13;10.48;;;7.40;99.90;;;;;;5128710;28;20037;-77
2024/01/30 07:35:58;;;;;;;14.95;11.30;;;7.40;99.90;;;;;;5110165;28;20051;-77
2024/01/30 07:38:24;;;;;;;13.27;10.07;;;7.40;99.90;;;;;;5111165;28;20079;-77
2024/01/30 07:40:49;;;;;;;15.25;10.57;;;7.40;99.90;;;;;;5162066;27;20085;-77
2024/01/30 07:43:15;;;;;;;13.38;10.00;;;7.40;99.90;;;;;;5113225;28;20052;-77
2024/01/30 07:45:41;;;;;;;14.15;10.75;;;7.50;99.90;;;;;;5123944;27;20055;-77
2024/01/30 07:48:06;;;;;;;13.20;9.55;;;7.50;99.90;;;;;;5090519;28;20051;-77
2024/01/30 07:50:32;;;;;;;12.52;9.38;;;7.50;99.90;;;;;;5141710;27;20039;-75
2024/01/30 07:52:59;;;;;;;11.57;8.88;;;7.50;99.90;;;;;;5106804;28;20036;-75
2024/01/30 07:55:28;;;;;;;13.27;10.52;;;7.50;99.90;;;;;;5107530;28;20047;-78
2024/01/30 07:57:54;;;;;;;12.18;9.13;;;7.50;99.90;;;;;;5141426;27;20449;-76
2024/01/30 08:00:21;;;;;;;14.27;10.25;;;7.50;99.90;;;;;;5108922;28;20094;-76
2024/01/30 08:02:55;;;;;;;13.98;9.50;;;7.60;99.90;;;;;;5108539;27;20503;-76
2024/01/30 08:05:22;;;;;;;12.27;9.48;;;7.60;99.90;;;;;;5108072;28;20055;-76
2024/01/30 08:07:48;;;;;;;14.10;10.10;;;7.60;99.90;;;;;;5140292;27;20075;-76
2024/01/30 08:10:14;;;;;;;13.15;10.05;;;7.60;99.90;;;;;;5141542;27;20451;-76
2024/01/30 08:12:40;;;;;;;13.60;9.88;;;7.70;99.90;;;;;;5106610;28;20119;-76
2024/01/30 08:15:07;;;;;;;13.85;9.02;;;7.60;99.90;;;;;;5106788;28;20047;-77
2024/01/30 08:17:32;;;;;;;11.70;9.27;;;7.70;99.90;;;;;;5107374;28;20044;-77
2024/01/30 08:19:58;;;;;;;12.38;9.45;;;7.70;99.90;;;;;;5108738;28;20380;-78
2024/01/30 08:22:24;;;;;;;14.63;10.20;;;7.60;99.90;;;;;;5107062;28;20070;-78
2024/01/30 08:24:50;;;;;;;12.73;9.82;;;7.70;99.90;;;;;;5107291;28;20143;-77
2024/01/30 08:27:16;;;;;;;13.75;10.38;;;7.70;99.90;;;;;;5107729;27;20042;-77
2024/01/30 08:29:41;;;;;;;15.98;9.45;;;7.70;99.90;;;;;;5108698;28;20035;-77
2024/01/30 08:32:07;;;;;;;13.15;9.80;;;7.70;99.90;;;;;;5108017;27;20046;-77
2024/01/30 08:34:33;;;;;;;14.82;10.30;;;7.70;99.90;;;;;;5108313;28;20036;-77
2024/01/30 08:36:59;;;;;;;10.85;8.63;;;7.80;99.90;;;;;;5107374;28;20036;-77
2024/01/30 08:39:25;;;;;;;13.18;9.52;;;7.80;99.90;;;;;;5123845;27;20039;-78
2024/01/30 08:41:50;;;;;;;13.10;10.20;;;7.90;99.90;;;;;;5107191;27;20105;-78
2024/01/30 08:44:17;;;;;;;13.60;10.18;;;7.90;99.90;;;;;;5140187;27;20040;-77
2024/01/30 08:46:46;;;;;;;13.52;9.82;;;8.00;99.90;;;;;;5141419;27;20518;-78
2024/01/30 08:49:13;;;;;;;12.82;9.68;;;8.00;99.90;;;;;;5143831;27;20044;-77
2024/01/30 08:51:39;;;;;;;13.30;8.43;;;8.00;99.90;;;;;;5110008;27;20383;-77
2024/01/30 08:54:05;;;;;;;11.95;9.38;;;8.10;99.90;;;;;;5110782;27;20093;-77
2024/01/30 08:56:30;;;;;;;11.65;9.15;;;8.10;99.90;;;;;;5111279;28;20052;-77
2024/01/30 08:58:56;;;;;;;15.55;9.57;;;8.10;99.90;;;;;;5109798;27;20047;-77
2024/01/30 09:01:22;;;;;;;12.27;9.50;;;8.20;99.90;;;;;;5109858;27;20425;-78
2024/01/30 09:03:47;;;;;;;15.70;10.18;;;8.20;99.90;;;;;;5108120;27;20251;-76
2024/01/30 09:06:13;;;;;;;15.80;9.77;;;8.30;99.90;;;;;;5110577;27;20727;-77
2024/01/30 09:08:39;;;;;;;11.93;9.60;;;8.30;99.90;;;;;;5111422;28;20162;-77
2024/01/30 09:11:15;;;;;;;13.77;9.10;;;8.30;99.90;;;;;;5109357;28;20462;-77
2024/01/30 09:13:41;;;;;;;11.10;8.70;;;8.30;99.90;;;;;;5111330;28;20048;-77
2024/01/30 09:16:07;;;;;;;14.30;9.70;;;8.30;99.90;;;;;;5110283;28;20507;-77
2024/01/30 09:18:33;;;;;;;13.20;9.80;;;8.40;99.90;;;;;;5109871;28;20040;-77
2024/01/30 09:20:59;;;;;;;12.48;8.98;;;8.40;99.90;;;;;;5109427;27;20044;-77
2024/01/30 09:23:27;;;;;;;11.40;9.02;;;8.50;99.90;;;;;;5143509;27;20136;-77
2024/01/30 09:25:53;;;;;;;14.13;9.00;;;8.60;99.90;;;;;;5143238;27;20048;-77
2024/01/30 09:28:19;;;;;;;11.55;8.75;;;8.70;99.90;;;;;;5108867;27;20039;-77
2024/01/30 09:30:45;;;;;;;17.75;9.55;;;8.70;99.90;;;;;;5109291;27;20043;-78
2024/01/30 09:33:10;;;;;;;11.98;8.93;;;8.90;99.90;;;;;;5109464;27;20051;-77
2024/01/30 09:35:36;;;;;;;14.57;8.98;;;9.00;99.90;;;;;;5108806;27;20455;-77
2024/01/30 09:38:02;;;;;;;14.23;9.02;;;9.00;99.90;;;;;;5110417;27;20407;-77
2024/01/30 09:40:28;;;;;;;11.23;8.88;;;9.20;99.90;;;;;;5109044;28;20040;-78
2024/01/30 09:42:54;;;;;;;12.07;8.43;;;9.20;99.90;;;;;;5109271;28;20054;-77
2024/01/30 09:45:24;;;;;;;12.98;8.98;;;9.30;99.90;;;;;;5110962;28;20036;-78
2024/01/30 09:47:49;;;;;;;12.05;8.32;;;9.30;99.90;;;;;;5110267;27;20040;-78
2024/01/30 09:50:16;;;;;;;12.85;8.63;;;9.30;99.90;;;;;;5109342;28;20046;-77
2024/01/30 09:52:42;;;;;;;13.20;8.75;;;9.40;99.90;;;;;;5108769;27;20039;-77
2024/01/30 09:55:09;;;;;;;15.20;8.75;;;9.40;99.90;;;;;;5109153;27;20755;-77
2024/01/30 09:57:35;;;;;;;14.02;9.23;;;9.50;99.90;;;;;;5109176;28;20495;-77
2024/01/30 10:00:01;;;;;;;15.30;9.93;;;9.50;99.90;;;;;;5109321;28;20039;-77
2024/01/30 10:02:27;;;;;;;13.98;8.88;;;9.70;99.90;;;;;;5109268;28;20051;-77
2024/01/30 10:04:53;;;;;;;14.48;8.85;;;9.70;99.90;;;;;;5109040;28;20039;-77
2024/01/30 10:07:19;;;;;;;12.13;8.77;;;9.80;99.90;;;;;;5107685;27;20075;-77
2024/01/30 10:09:46;;;;;;;10.35;7.72;;;9.90;99.90;;;;;;5108520;28;20042;-77
2024/01/30 10:12:12;;;;;;;12.35;8.43;;;9.90;99.90;;;;;;5109329;28;20487;-77
2024/01/30 10:14:39;;;;;;;13.65;9.20;;;9.90;99.90;;;;;;5108130;27;20549;-77
2024/01/30 10:17:05;;;;;;;17.33;8.93;;;10.00;99.90;;;;;;5109206;27;20050;-78
2024/01/30 10:19:31;;;;;;;10.63;8.30;;;10.10;99.90;;;;;;5108470;28;20293;-77
2024/01/30 10:21:57;;;;;;;13.05;8.18;;;10.10;99.90;;;;;;5110090;28;20495;-77
2024/01/30 10:24:26;;;;;;;11.70;8.30;;;10.10;99.90;;;;;;5108232;28;20137;-78
2024/01/30 10:26:53;;;;;;;13.65;8.38;;;10.10;99.90;;;;;;5108640;28;20040;-77
2024/01/30 10:29:18;;;;;;;10.40;7.35;;;10.10;99.90;;;;;;5108618;28;20425;-77
2024/01/30 10:31:44;;;;;;;10.98;8.32;;;10.10;99.90;;;;;;5108592;28;20074;-78
2024/01/30 10:34:09;;;;;;;14.20;9.18;;;10.20;99.90;;;;;;5107895;27;20035;-77
2024/01/30 10:36:41;;;;;;;11.77;8.57;;;10.20;99.90;;;;;;5108710;27;20076;-75
2024/01/30 10:39:08;;;;;;;13.25;8.43;;;10.20;99.90;;;;;;5105914;27;20039;-76
2024/01/30 10:41:42;;;;;;;11.30;8.55;;;10.20;99.90;;;;;;5142577;27;20071;-76
2024/01/30 10:44:10;;;;;;;17.13;9.57;;;10.20;99.90;;;;;;5109505;28;20488;-76
2024/01/30 10:46:38;;;;;;;12.13;7.95;;;10.20;99.90;;;;;;5108408;28;20055;-77
2024/01/30 10:49:04;;;;;;;14.77;9.30;;;10.20;99.90;;;;;;5108420;28;20146;-76
2024/01/30 10:51:31;;;;;;;15.07;8.30;;;10.20;99.90;;;;;;5108873;27;20491;-77
2024/01/30 10:53:57;;;;;;;13.45;9.05;;;10.20;99.90;;;;;;5107749;28;20122;-76
2024/01/30 10:56:24;;;;;;;16.77;9.40;;;10.30;99.90;;;;;;5108368;28;20146;-76
2024/01/30 10:58:53;;;;;;;12.55;8.27;;;10.30;99.90;;;;;;5109401;28;20403;-76
2024/01/30 11:01:22;;;;;;;17.27;8.73;;;10.30;99.90;;;;;;5109100;27;20043;-77
2024/01/30 11:03:52;;;;;;;11.70;7.95;;;10.30;99.90;;;;;;5108810;27;20087;-76
2024/01/30 11:06:18;;;;;;;16.17;8.82;;;10.30;99.90;;;;;;5108956;28;20369;-76
2024/01/30 11:08:59;;;;;;;13.07;8.10;;;10.30;99.90;;;;;;5106215;27;20070;-76
2024/01/30 11:11:25;;;;;;;14.15;9.07;;;10.30;99.90;;;;;;5089840;28;20126;-76
2024/01/30 11:13:51;;;;;;;14.65;9.00;;;10.30;99.90;;;;;;5107766;28;20134;-76
2024/01/30 11:16:17;;;;;;;14.82;8.18;;;10.30;99.90;;;;;;5107619;28;20036;-76
2024/01/30 11:18:42;;;;;;;14.90;8.88;;;10.30;99.90;;;;;;5108588;27;20108;-77
2024/01/30 11:21:08;;;;;;;13.35;7.85;;;10.40;99.90;;;;;;5141616;27;20103;-77
2024/01/30 11:23:35;;;;;;;14.77;7.80;;;10.40;99.90;;;;;;5107835;27;20051;-76
2024/01/30 11:26:02;;;;;;;13.93;7.35;;;10.40;99.90;;;;;;5108783;27;20040;-77
2024/01/30 11:28:37;;;;;;;14.40;7.32;;;10.40;99.90;;;;;;5108643;27;20044;-76
2024/01/30 11:31:07;;;;;;;10.43;6.03;;;10.50;99.90;;;;;;5109280;28;20408;-76
2024/01/30 11:33:33;;;;;;;15.52;7.30;;;10.50;99.90;;;;;;5109254;28;20088;-77
2024/01/30 11:36:00;;;;;;;11.35;5.95;;;10.50;99.90;;;;;;5107574;28;20062;-76
2024/01/30 11:38:30;;;;;;;12.70;5.38;;;10.40;99.90;;;;;;5107415;28;20056;-76
2024/01/30 11:40:58;;;;;;;13.65;5.43;;;10.30;99.90;;;;;;5109027;28;20483;-76
2024/01/30 11:43:24;;;;;;;9.73;4.50;;;10.20;99.90;;;;;;5108432;27;20042;-77
2024/01/30 11:45:51;;;;;;;8.95;3.75;;;10.20;99.90;;;;;;5107476;28;20063;-77
2024/01/30 11:48:17;;;;;;;9.02;4.22;;;10.20;99.90;;;;;;5142295;27;20044;-77
2024/01/30 11:50:44;;;;;;;8.57;4.00;;;10.20;99.90;;;;;;5141283;27;20036;-77
2024/01/30 11:53:10;;;;;;;6.95;3.40;;;10.20;99.90;;;;;;5141595;27;20241;-77
2024/01/30 11:55:37;;;;;;;8.10;3.55;;;10.10;99.90;;;;;;5124806;28;20229;-77
2024/01/30 11:58:04;;;;;;;8.25;3.05;;;10.10;99.90;;;;;;5119010;28;20055;-77
2024/01/30 12:00:31;;;;;;;8.30;2.60;;;10.10;99.90;;;;;;5109890;27;20038;-77
2024/01/30 12:02:57;;;;;;;4.25;2.30;;;10.10;99.90;;;;;;5107004;28;20044;-77
2024/01/30 12:05:23;;;;;;;6.82;2.45;;;10.10;99.90;;;;;;5106451;28;20051;-78
2024/01/30 12:07:49;;;;;;;6.10;2.28;;;10.00;99.90;;;;;;5106958;28;20387;-76
2024/01/30 12:10:14;;;;;;;6.38;1.50;;;10.00;99.90;;;;;;5109659;28;20031;-78
2024/01/30 12:12:43;;;;;;;6.05;1.60;;;9.90;99.90;;;;;;5108255;28;20112;-77
2024/01/30 12:15:09;;;;;;;3.03;1.60;;;9.90;99.90;;;;;;5112510;27;20080;-76
2024/01/30 12:17:35;;;;;;;3.90;1.20;;;9.90;99.90;;;;;;5090262;28;20092;-77
2024/01/30 12:20:15;;;;;;;5.68;0.98;;;9.80;99.90;;;;;;5106019;28;20407;-76
2024/01/30 12:22:47;;;;;;;1.77;0.70;;;9.80;99.90;;;;;;5110372;28;20059;-78
2024/01/30 12:25:18;;;;;;;3.58;0.80;;;9.80;99.90;;;;;;5111113;28;20082;-77
2024/01/30 12:27:50;;;;;;;1.75;0.60;;;9.80;99.90;;;;;;5112340;28;20036;-77
2024/01/30 12:30:17;;;;;;;2.92;0.70;;;9.80;99.90;;;;;;5144972;27;20047;-78
2024/01/30 12:32:49;;;;;;;4.25;1.05;;;9.70;99.90;;;;;;5110994;28;20089;-77
2024/01/30 12:35:16;;;;;;;3.35;0.70;;;9.80;99.90;;;;;;5111904;28;20389;-77